ZTH weather

Zakynthos International Airport "Dionysios Solomos"
Zakynthos Island, Zakynthos, Greece

Public forecast

Using degrees Celsius for public forecast. Weather courtesy of forecast.io.

Current aviation weather report (METAR) for Zakynthos International Airport "Dionysios Solomos"

Retrieved 2020/06/02 08:50 UTC (17 minutes ago):

LGZA 020850Z 05004KT 9999 SCT020 21/15 Q1011

Aviation forecast (TAF) for Zakynthos International Airport "Dionysios Solomos"

Forecast is more than 12 hours old.

Retrieved 2011/11/25 15:06 UTC (9 years ago):

TAF TAF LGZA 251400Z 2515/2603 02012KT 9999 FEW025 SCT035 BKN080 PROB30 TEMPO 2518/2603 8000 RA PROB30 2522/2603 5000 BR SCT010